Time;durP1;ratioP1;P1;durP2;ratioP2;P2;SDS_P1;SDS_P2;PMS_P1;PMS_P2;Temp;Humidity;BMP_temperature;BMP_pressure;BME280_temperature;BME280_humidity;BME280_pressure;Samples;Min_cycle;Max_cycle;Signal;HPM_P1;HPM_P2
2024/01/31 00:01:56;;;;;;;24.47;14.57;;;11.40;99.90;;;;;;4958854;28;20499;-68
2024/01/31 00:04:23;;;;;;;17.97;13.60;;;11.50;99.90;;;;;;4961397;28;20920;-69
2024/01/31 00:06:52;;;;;;;24.57;14.40;;;11.40;99.90;;;;;;4933150;28;20473;-68
2024/01/31 00:09:19;;;;;;;34.20;16.40;;;11.30;99.90;;;;;;4948264;28;20520;-70
2024/01/31 00:11:46;;;;;;;34.70;15.20;;;11.30;99.90;;;;;;4955439;28;20966;-68
2024/01/31 00:14:13;;;;;;;24.30;15.17;;;11.20;99.90;;;;;;4953301;28;20492;-68
2024/01/31 00:16:42;;;;;;;25.00;15.27;;;11.20;99.90;;;;;;4943355;28;20599;-68
2024/01/31 00:19:09;;;;;;;28.23;14.07;;;11.00;99.90;;;;;;4969796;28;20915;-70
2024/01/31 00:21:36;;;;;;;36.90;16.33;;;11.00;99.90;;;;;;4975092;28;20492;-68
2024/01/31 00:24:04;;;;;;;18.97;14.40;;;10.90;99.90;;;;;;4966203;28;20815;-68
2024/01/31 00:26:31;;;;;;;21.00;14.60;;;10.80;99.90;;;;;;4979235;28;20517;-70
2024/01/31 00:28:58;;;;;;;21.10;15.57;;;10.70;99.90;;;;;;4918482;28;20493;-70
2024/01/31 00:31:25;;;;;;;28.23;16.90;;;10.60;99.90;;;;;;4961699;28;20496;-70
2024/01/31 00:33:52;;;;;;;24.77;16.00;;;10.50;99.90;;;;;;4960962;28;20500;-70
2024/01/31 00:36:19;;;;;;;26.47;18.73;;;10.40;99.90;;;;;;4967587;28;20776;-64
2024/01/31 00:38:46;;;;;;;30.77;18.33;;;10.40;99.90;;;;;;4981882;28;20509;-65
2024/01/31 00:41:15;;;;;;;42.10;19.37;;;10.40;99.90;;;;;;4978374;28;20497;-65
2024/01/31 00:43:42;;;;;;;26.53;18.60;;;10.40;99.90;;;;;;4980186;28;20787;-65
2024/01/31 00:46:09;;;;;;;42.47;20.57;;;10.40;99.90;;;;;;4978204;28;20520;-65
2024/01/31 00:48:36;;;;;;;29.67;18.23;;;10.40;99.90;;;;;;4978740;28;20512;-65
2024/01/31 00:51:03;;;;;;;28.13;17.67;;;10.40;99.90;;;;;;4978394;28;20512;-65
2024/01/31 00:53:30;;;;;;;28.63;16.90;;;10.50;99.90;;;;;;4974361;28;20485;-64
2024/01/31 00:55:57;;;;;;;29.83;17.40;;;10.50;99.90;;;;;;4978371;28;20658;-65
2024/01/31 00:58:25;;;;;;;30.73;19.37;;;10.50;99.90;;;;;;4980847;28;20559;-65
2024/01/31 01:00:52;;;;;;;28.63;19.70;;;10.50;99.90;;;;;;4991832;28;20493;-65
2024/01/31 01:03:19;;;;;;;31.40;21.53;;;10.40;99.90;;;;;;4993867;28;20493;-64
2024/01/31 01:05:46;;;;;;;32.63;20.90;;;10.40;99.90;;;;;;4989330;28;20497;-65
2024/01/31 01:08:13;;;;;;;25.20;18.30;;;10.40;99.90;;;;;;4955178;28;20501;-65
2024/01/31 01:10:40;;;;;;;31.27;20.47;;;10.50;99.90;;;;;;4968912;28;20497;-65
2024/01/31 01:13:07;;;;;;;35.00;20.50;;;10.60;99.90;;;;;;4965175;28;20492;-65
2024/01/31 01:15:36;;;;;;;31.97;20.10;;;10.50;99.90;;;;;;4974817;28;20561;-65
2024/01/31 01:18:03;;;;;;;34.20;19.87;;;10.50;99.90;;;;;;4983785;28;20473;-65
2024/01/31 01:20:29;;;;;;;66.23;22.40;;;10.40;99.90;;;;;;4970545;28;20560;-65
2024/01/31 01:23:00;;;;;;;37.17;20.73;;;10.40;99.90;;;;;;4987685;28;20582;-65
2024/01/31 01:25:28;;;;;;;31.07;20.00;;;10.40;99.90;;;;;;4959563;28;20501;-65
2024/01/31 01:27:54;;;;;;;41.53;23.33;;;10.40;99.90;;;;;;4975417;28;20473;-64
2024/01/31 01:30:22;;;;;;;37.30;20.80;;;10.30;99.90;;;;;;4982531;28;20935;-65
2024/01/31 01:32:51;;;;;;;30.83;20.37;;;10.30;99.90;;;;;;4984009;28;20546;-65
2024/01/31 01:35:18;;;;;;;35.33;20.70;;;10.20;99.90;;;;;;4973369;28;20575;-65
2024/01/31 01:37:46;;;;;;;37.00;20.43;;;10.20;99.90;;;;;;4981520;28;20478;-65
2024/01/31 01:40:15;;;;;;;25.93;15.87;;;10.10;99.90;;;;;;4985951;28;20596;-65
2024/01/31 01:42:42;;;;;;;30.77;16.33;;;10.20;99.90;;;;;;4983902;28;20523;-64
2024/01/31 01:45:11;;;;;;;23.70;14.73;;;10.20;99.90;;;;;;4974636;28;20988;-68
2024/01/31 01:47:39;;;;;;;24.30;11.13;;;;;;;;;;4953251;28;20524;-69
2024/01/31 01:50:09;;;;;;;18.63;10.10;;;10.50;99.90;;;;;;4972404;28;20567;-69
2024/01/31 01:52:37;;;;;;;17.40;8.40;;;10.60;99.90;;;;;;4993543;28;20645;-68
2024/01/31 01:55:05;;;;;;;20.03;9.53;;;10.60;99.90;;;;;;4935982;28;20485;-70
2024/01/31 01:57:32;;;;;;;16.47;9.33;;;10.70;99.90;;;;;;4968375;28;20754;-69
2024/01/31 02:00:00;;;;;;;17.27;8.80;;;10.70;99.90;;;;;;4965027;28;20481;-70
2024/01/31 02:02:28;;;;;;;9.40;7.50;;;10.70;99.90;;;;;;4952541;28;20498;-71
2024/01/31 02:04:55;;;;;;;17.93;8.83;;;10.70;99.90;;;;;;4986520;28;20548;-71
2024/01/31 02:07:26;;;;;;;13.47;8.10;;;10.70;99.90;;;;;;4964792;28;20827;-72
2024/01/31 02:09:53;;;;;;;18.67;8.20;;;10.70;99.90;;;;;;4963468;28;20502;-69
2024/01/31 02:12:20;;;;;;;16.17;9.33;;;10.70;99.90;;;;;;4965420;28;20864;-71
2024/01/31 02:14:48;;;;;;;9.37;7.40;;;10.70;99.90;;;;;;4998905;28;21021;-72
2024/01/31 02:17:15;;;;;;;13.60;8.03;;;10.70;99.90;;;;;;4974929;28;20502;-69
2024/01/31 02:19:42;;;;;;;20.03;9.23;;;10.70;99.90;;;;;;4970255;28;20494;-69
2024/01/31 02:22:14;;;;;;;10.37;8.27;;;;;;;;;;4955212;28;20645;-70
2024/01/31 02:24:41;;;;;;;20.80;9.60;;;10.70;99.90;;;;;;4995619;28;20492;-71
2024/01/31 02:27:07;;;;;;;22.07;9.60;;;10.80;99.90;;;;;;4969003;28;20488;-68
2024/01/31 02:29:34;;;;;;;24.77;9.07;;;10.80;99.90;;;;;;4978839;28;20756;-70
2024/01/31 02:32:01;;;;;;;12.47;9.37;;;10.90;99.90;;;;;;4955062;28;20486;-69
2024/01/31 02:34:28;;;;;;;12.93;9.37;;;10.90;99.90;;;;;;4935640;28;20621;-69
2024/01/31 02:36:55;;;;;;;15.10;10.33;;;10.90;99.90;;;;;;4948345;28;20497;-70
2024/01/31 02:39:23;;;;;;;17.13;8.40;;;10.90;99.90;;;;;;4979959;28;20473;-69
2024/01/31 02:41:51;;;;;;;13.60;9.00;;;11.00;99.90;;;;;;4972831;28;20478;-70
2024/01/31 02:44:19;;;;;;;39.83;11.23;;;11.00;99.90;;;;;;4963998;28;20782;-70
2024/01/31 02:46:46;;;;;;;12.77;10.10;;;11.00;99.90;;;;;;4966721;28;22054;-69
2024/01/31 02:49:13;;;;;;;13.00;10.20;;;11.00;99.90;;;;;;4960294;28;20911;-70
2024/01/31 02:51:40;;;;;;;16.67;10.60;;;11.10;99.90;;;;;;4914838;28;20735;-70
2024/01/31 02:54:07;;;;;;;19.30;10.03;;;11.10;99.90;;;;;;4964383;28;20496;-70
2024/01/31 02:56:35;;;;;;;17.07;9.30;;;11.20;99.90;;;;;;4943966;28;20546;-69
2024/01/31 02:59:02;;;;;;;16.70;10.20;;;11.20;99.90;;;;;;4977633;28;20915;-69
2024/01/31 03:01:29;;;;;;;13.00;9.00;;;11.20;99.90;;;;;;4961993;28;20960;-67
2024/01/31 03:03:55;;;;;;;15.33;9.30;;;11.20;99.90;;;;;;4957284;28;21322;-70
2024/01/31 03:06:22;;;;;;;19.10;12.33;;;11.20;99.90;;;;;;4978945;28;20929;-69
2024/01/31 03:08:49;;;;;;;15.90;11.13;;;11.00;99.90;;;;;;4999337;28;20494;-70
2024/01/31 03:11:19;;;;;;;16.83;10.90;;;10.80;99.90;;;;;;4980674;28;20488;-70
2024/01/31 03:13:48;;;;;;;24.13;11.07;;;10.70;99.90;;;;;;4973956;28;20473;-68
2024/01/31 03:16:15;;;;;;;11.37;9.57;;;10.80;99.90;;;;;;4985621;28;20521;-68
2024/01/31 03:18:41;;;;;;;19.17;11.00;;;10.90;99.90;;;;;;4965993;28;20492;-70
2024/01/31 03:21:08;;;;;;;16.40;10.67;;;10.90;99.90;;;;;;4973441;28;20709;-68
2024/01/31 03:23:35;;;;;;;13.10;9.80;;;10.90;99.90;;;;;;4989855;28;20484;-70
2024/01/31 03:26:02;;;;;;;16.13;8.17;;;10.90;99.90;;;;;;4989834;28;21203;-70
2024/01/31 03:28:29;;;;;;;14.63;10.47;;;10.80;99.90;;;;;;4977320;28;20531;-71
2024/01/31 03:30:57;;;;;;;18.13;9.87;;;10.60;99.90;;;;;;4986343;28;20491;-68
2024/01/31 03:33:24;;;;;;;23.33;11.53;;;10.60;99.90;;;;;;4989102;28;20472;-70
2024/01/31 03:35:51;;;;;;;19.90;11.93;;;10.60;99.90;;;;;;4967337;28;20482;-68
2024/01/31 03:38:18;;;;;;;22.20;11.73;;;10.60;99.90;;;;;;4979462;28;20554;-70
2024/01/31 03:40:45;;;;;;;18.10;12.67;;;10.60;99.90;;;;;;4957892;28;20504;-69
2024/01/31 03:43:12;;;;;;;27.40;12.93;;;10.50;99.90;;;;;;4984473;28;20492;-68
2024/01/31 03:45:39;;;;;;;19.23;11.33;;;10.50;99.90;;;;;;4973863;28;20492;-70
2024/01/31 03:48:08;;;;;;;45.43;13.90;;;10.50;99.90;;;;;;4988821;28;20496;-71
2024/01/31 03:50:35;;;;;;;22.20;12.23;;;10.40;99.90;;;;;;4951570;28;21004;-71
2024/01/31 03:53:02;;;;;;;23.93;14.20;;;10.30;99.90;;;;;;4950700;28;20477;-70
2024/01/31 03:55:29;;;;;;;19.30;13.20;;;10.40;99.90;;;;;;4906701;28;20551;-70
2024/01/31 03:57:56;;;;;;;21.43;13.87;;;10.40;99.90;;;;;;4969662;28;20531;-70
2024/01/31 04:00:23;;;;;;;24.30;13.40;;;10.50;99.90;;;;;;4966548;28;20490;-69
2024/01/31 04:02:50;;;;;;;23.03;13.40;;;10.50;99.90;;;;;;4954372;28;20485;-69
2024/01/31 04:05:18;;;;;;;19.83;11.77;;;10.50;99.90;;;;;;4994824;28;20486;-69
2024/01/31 04:07:45;;;;;;;32.43;14.43;;;10.50;99.90;;;;;;4972525;28;21118;-65
2024/01/31 04:10:12;;;;;;;31.97;13.03;;;10.50;99.90;;;;;;4974105;28;20497;-65
2024/01/31 04:12:40;;;;;;;34.10;14.37;;;10.60;99.90;;;;;;4945391;28;20485;-65
2024/01/31 04:15:07;;;;;;;18.17;12.67;;;10.60;99.90;;;;;;4983809;28;20929;-65
2024/01/31 04:17:34;;;;;;;25.73;14.90;;;10.70;99.90;;;;;;4954370;28;20493;-65
2024/01/31 04:20:01;;;;;;;32.53;15.00;;;10.70;99.90;;;;;;4983199;28;20538;-64
2024/01/31 04:22:29;;;;;;;44.17;16.87;;;10.60;99.90;;;;;;4977647;28;20489;-65
2024/01/31 04:24:57;;;;;;;23.27;14.50;;;10.60;99.90;;;;;;4980259;28;20532;-65
2024/01/31 04:27:24;;;;;;;23.10;13.87;;;10.50;99.90;;;;;;4991025;28;20488;-65
2024/01/31 04:29:50;;;;;;;22.63;13.57;;;10.50;99.90;;;;;;4939247;28;20955;-65
2024/01/31 04:32:17;;;;;;;20.90;14.40;;;10.40;99.90;;;;;;4957764;28;20481;-65
2024/01/31 04:34:44;;;;;;;23.33;14.70;;;10.20;99.90;;;;;;4935649;28;20560;-65
2024/01/31 04:37:11;;;;;;;21.83;13.07;;;10.20;99.90;;;;;;4945703;28;20914;-64
2024/01/31 04:39:43;;;;;;;19.50;12.33;;;10.00;99.90;;;;;;4967779;28;20488;-66
2024/01/31 04:42:10;;;;;;;25.90;13.60;;;10.10;99.90;;;;;;4955161;28;20666;-65
2024/01/31 04:44:37;;;;;;;20.10;13.13;;;10.10;99.90;;;;;;4967858;28;20497;-65
2024/01/31 04:47:04;;;;;;;30.63;12.77;;;;;;;;;;4945386;28;20484;-65
2024/01/31 04:49:32;;;;;;;31.83;13.47;;;10.20;99.90;;;;;;4971109;28;20579;-64
2024/01/31 04:51:59;;;;;;;17.70;11.20;;;10.20;99.90;;;;;;4933726;28;20475;-64
2024/01/31 04:54:26;;;;;;;18.93;9.83;;;10.30;99.90;;;;;;4971371;28;20498;-65
2024/01/31 04:56:54;;;;;;;36.03;11.80;;;10.30;99.90;;;;;;4956259;28;20503;-65
2024/01/31 04:59:21;;;;;;;16.50;10.40;;;10.30;99.90;;;;;;4987127;28;20528;-65
2024/01/31 05:01:48;;;;;;;15.47;10.90;;;10.40;99.90;;;;;;4939869;28;20515;-65
2024/01/31 05:04:15;;;;;;;13.03;10.17;;;10.40;99.90;;;;;;4985847;28;20470;-66
2024/01/31 05:06:42;;;;;;;17.57;10.43;;;10.40;99.90;;;;;;4958515;28;20477;-65
2024/01/31 05:09:09;;;;;;;16.77;9.60;;;10.40;99.90;;;;;;4984768;28;20864;-65
2024/01/31 05:11:36;;;;;;;15.50;9.97;;;10.40;99.90;;;;;;4992170;28;20539;-65
2024/01/31 05:14:04;;;;;;;14.70;9.40;;;10.40;99.90;;;;;;4971787;28;20490;-65
2024/01/31 05:16:31;;;;;;;34.33;10.60;;;10.30;99.90;;;;;;4985151;28;20594;-65
2024/01/31 05:18:58;;;;;;;16.37;10.47;;;10.30;99.90;;;;;;4960510;28;20478;-69
2024/01/31 05:21:25;;;;;;;39.03;10.57;;;10.40;99.90;;;;;;4976941;28;20927;-69
2024/01/31 05:23:52;;;;;;;25.60;10.90;;;10.30;99.90;;;;;;4989643;28;20887;-68
2024/01/31 05:26:19;;;;;;;14.60;10.00;;;10.30;99.90;;;;;;4984256;28;20490;-68
2024/01/31 05:28:49;;;;;;;22.93;10.33;;;10.30;99.90;;;;;;4952514;28;20976;-69
2024/01/31 05:31:17;;;;;;;16.50;9.23;;;10.30;99.90;;;;;;4960124;28;21213;-69
2024/01/31 05:33:44;;;;;;;12.93;9.00;;;10.40;99.90;;;;;;4982812;28;20911;-70
2024/01/31 05:36:11;;;;;;;12.90;9.23;;;10.40;99.90;;;;;;4947100;28;21793;-69
2024/01/31 05:38:38;;;;;;;17.57;10.93;;;10.40;99.90;;;;;;5001050;28;20486;-71
2024/01/31 05:41:05;;;;;;;16.17;10.87;;;10.30;99.90;;;;;;4988025;28;20998;-70
2024/01/31 05:43:32;;;;;;;13.87;10.33;;;10.20;99.90;;;;;;4973247;28;20500;-69
2024/01/31 05:45:59;;;;;;;16.77;10.67;;;10.20;99.90;;;;;;4985067;28;20504;-69
2024/01/31 05:48:27;;;;;;;11.23;9.20;;;10.00;99.90;;;;;;4989670;28;20484;-70
2024/01/31 05:50:54;;;;;;;15.77;9.40;;;9.80;99.90;;;;;;4984583;28;20493;-71
2024/01/31 05:53:21;;;;;;;14.53;8.80;;;9.80;99.90;;;;;;4985322;28;20620;-70
2024/01/31 05:55:47;;;;;;;29.40;9.93;;;9.80;99.90;;;;;;4970860;28;20482;-69
2024/01/31 05:58:14;;;;;;;12.73;9.50;;;9.80;99.90;;;;;;4979653;28;20539;-69
2024/01/31 06:00:44;;;;;;;10.70;8.10;;;9.60;99.90;;;;;;4977306;28;20562;-70
2024/01/31 06:03:11;;;;;;;23.47;9.57;;;9.40;99.90;;;;;;4967390;28;20489;-71
2024/01/31 06:05:39;;;;;;;15.27;8.80;;;9.20;99.90;;;;;;4955531;28;20488;-70
2024/01/31 06:08:07;;;;;;;11.60;7.83;;;9.20;99.90;;;;;;4945066;28;20487;-72
2024/01/31 06:10:34;;;;;;;15.50;8.73;;;9.10;99.90;;;;;;4954468;28;21061;-69
2024/01/31 06:13:01;;;;;;;15.57;10.00;;;9.30;99.90;;;;;;4987523;28;20486;-70
2024/01/31 06:15:28;;;;;;;15.40;9.30;;;9.40;99.90;;;;;;4974423;28;20486;-70
2024/01/31 06:17:55;;;;;;;24.63;9.73;;;9.60;99.90;;;;;;4956153;28;20564;-70
2024/01/31 06:20:22;;;;;;;15.40;9.97;;;9.60;99.90;;;;;;4973269;28;20980;-69
2024/01/31 06:22:50;;;;;;;11.77;8.37;;;9.40;99.90;;;;;;4959410;28;20488;-69
2024/01/31 06:25:18;;;;;;;14.83;8.93;;;9.40;99.90;;;;;;4955577;28;20854;-70
2024/01/31 06:27:44;;;;;;;14.30;9.33;;;9.40;99.90;;;;;;4988153;28;20577;-65
2024/01/31 06:30:19;;;;;;;29.53;9.20;;;9.50;99.90;;;;;;4976727;28;20481;-65
2024/01/31 06:32:47;;;;;;;12.40;8.63;;;9.60;99.90;;;;;;4983897;28;20845;-64
2024/01/31 06:35:14;;;;;;;13.10;9.30;;;9.60;99.90;;;;;;4974496;28;20570;-66
2024/01/31 06:37:41;;;;;;;21.93;9.70;;;9.40;99.90;;;;;;4969469;28;20531;-65
2024/01/31 06:40:10;;;;;;;31.77;9.20;;;9.30;99.90;;;;;;4957806;28;20485;-65
2024/01/31 06:42:37;;;;;;;13.17;9.80;;;9.20;99.90;;;;;;4960428;28;20482;-65
2024/01/31 06:45:04;;;;;;;18.90;11.10;;;9.20;99.90;;;;;;4964968;28;20488;-64
2024/01/31 06:47:31;;;;;;;17.30;8.93;;;9.10;99.90;;;;;;4974765;28;20485;-64
2024/01/31 06:49:58;;;;;;;12.17;7.93;;;9.30;99.90;;;;;;4981132;28;20505;-65
2024/01/31 06:52:25;;;;;;;11.00;7.90;;;9.10;99.90;;;;;;4979956;28;20564;-65
2024/01/31 06:54:52;;;;;;;13.00;8.23;;;9.00;99.90;;;;;;4985874;28;20481;-65
2024/01/31 06:57:21;;;;;;;13.50;7.90;;;9.00;99.90;;;;;;4985904;28;20494;-65
2024/01/31 06:59:48;;;;;;;25.67;10.47;;;9.10;99.90;;;;;;4968003;28;20484;-65
2024/01/31 07:02:15;;;;;;;20.00;9.10;;;9.20;99.90;;;;;;4970675;28;20971;-65
2024/01/31 07:04:42;;;;;;;25.03;10.90;;;9.30;99.90;;;;;;4982546;28;20489;-64
2024/01/31 07:07:08;;;;;;;13.53;10.30;;;9.30;99.90;;;;;;4980528;28;20492;-65
2024/01/31 07:09:35;;;;;;;21.30;11.10;;;9.30;99.90;;;;;;4971581;28;20496;-65
2024/01/31 07:12:02;;;;;;;22.37;10.87;;;9.40;99.90;;;;;;4971791;28;20478;-65
2024/01/31 07:14:30;;;;;;;14.87;11.47;;;9.40;99.90;;;;;;4979770;28;20489;-65
2024/01/31 07:16:57;;;;;;;31.53;13.60;;;9.40;99.90;;;;;;4981893;28;20484;-65
2024/01/31 07:19:24;;;;;;;48.23;22.37;;;9.50;99.90;;;;;;4967634;28;20490;-65
2024/01/31 07:21:51;;;;;;;34.80;20.77;;;9.50;99.90;;;;;;4990300;28;20530;-65
2024/01/31 07:24:18;;;;;;;32.23;15.73;;;9.50;99.90;;;;;;4968751;28;20507;-65
2024/01/31 07:26:45;;;;;;;21.93;12.57;;;9.60;99.90;;;;;;4980576;28;20489;-65
2024/01/31 07:29:12;;;;;;;25.40;14.97;;;9.60;99.90;;;;;;4971122;28;20496;-64
2024/01/31 07:31:40;;;;;;;17.87;9.33;;;9.60;99.90;;;;;;4981162;28;20489;-64
2024/01/31 07:34:08;;;;;;;30.73;8.97;;;9.30;99.90;;;;;;4975024;28;20489;-65
2024/01/31 07:36:34;;;;;;;12.97;7.57;;;9.20;99.90;;;;;;4983360;28;20480;-65
2024/01/31 07:39:01;;;;;;;44.60;10.20;;;9.10;99.90;;;;;;4963357;28;20809;-69
2024/01/31 07:41:28;;;;;;;11.03;7.80;;;9.10;99.90;;;;;;4961888;28;20493;-69
2024/01/31 07:43:55;;;;;;;14.80;9.17;;;8.90;99.90;;;;;;4957864;28;20550;-70
2024/01/31 07:46:22;;;;;;;27.60;9.90;;;8.90;99.90;;;;;;4968889;28;20505;-69
2024/01/31 07:48:50;;;;;;;20.53;11.10;;;8.90;99.90;;;;;;4990610;28;20493;-69
2024/01/31 07:51:17;;;;;;;16.40;8.97;;;8.90;99.90;;;;;;4963617;28;20556;-67
2024/01/31 07:53:44;;;;;;;20.43;9.67;;;8.90;99.90;;;;;;4970433;28;20496;-70
2024/01/31 07:56:11;;;;;;;16.57;9.23;;;9.00;99.90;;;;;;4980692;28;20484;-69
2024/01/31 07:58:38;;;;;;;15.60;9.53;;;9.00;99.90;;;;;;4970877;28;20498;-70
2024/01/31 08:01:05;;;;;;;20.97;9.10;;;9.10;99.90;;;;;;4970241;28;21251;-69
2024/01/31 08:03:34;;;;;;;23.63;11.20;;;9.20;99.90;;;;;;4980311;28;20480;-69
2024/01/31 08:06:03;;;;;;;15.50;9.13;;;9.20;99.90;;;;;;4997517;28;20559;-69
2024/01/31 08:08:30;;;;;;;20.33;11.13;;;9.30;99.90;;;;;;4963700;28;20544;-68
2024/01/31 08:10:58;;;;;;;15.13;9.20;;;9.50;99.90;;;;;;4978627;28;20737;-69
2024/01/31 08:13:25;;;;;;;31.10;10.87;;;9.50;99.90;;;;;;4979754;28;20922;-68
2024/01/31 08:15:52;;;;;;;22.23;12.13;;;9.50;99.90;;;;;;4989888;28;20485;-71
2024/01/31 08:18:20;;;;;;;19.60;12.43;;;9.70;99.90;;;;;;4964306;28;20504;-69
2024/01/31 08:20:47;;;;;;;35.13;12.17;;;9.80;99.90;;;;;;4964045;28;20484;-68
2024/01/31 08:23:15;;;;;;;16.33;10.80;;;9.80;99.90;;;;;;4967456;28;20506;-70
2024/01/31 08:25:42;;;;;;;16.73;8.87;;;9.60;99.90;;;;;;4968133;28;20484;-71
2024/01/31 08:28:09;;;;;;;20.77;7.20;;;9.40;99.90;;;;;;4959697;28;20486;-68
2024/01/31 08:30:36;;;;;;;12.03;8.27;;;9.50;99.90;;;;;;4958914;28;20500;-70
2024/01/31 08:33:03;;;;;;;27.13;9.83;;;9.50;99.90;;;;;;4980081;28;20547;-68
2024/01/31 08:35:30;;;;;;;25.80;9.50;;;9.50;99.90;;;;;;4944428;28;20512;-68
2024/01/31 08:37:57;;;;;;;14.90;9.00;;;9.60;99.90;;;;;;4987223;28;20528;-67
2024/01/31 08:40:25;;;;;;;19.03;7.97;;;9.70;99.90;;;;;;4959063;28;20488;-67
2024/01/31 08:42:57;;;;;;;13.67;8.90;;;9.90;99.90;;;;;;4953447;28;20481;-68
2024/01/31 08:45:24;;;;;;;13.60;8.53;;;9.90;99.90;;;;;;4950693;28;20502;-68
2024/01/31 08:47:51;;;;;;;31.10;8.60;;;9.90;99.90;;;;;;4951365;28;20486;-70
2024/01/31 08:50:18;;;;;;;10.87;7.70;;;10.00;99.90;;;;;;4983766;28;20469;-64
2024/01/31 08:52:45;;;;;;;12.57;8.20;;;10.10;99.90;;;;;;4963026;28;20480;-64
2024/01/31 08:55:13;;;;;;;24.50;8.73;;;10.10;99.90;;;;;;4987415;28;20472;-65
2024/01/31 08:57:42;;;;;;;11.30;7.37;;;;;;;;;;4977160;28;20495;-64
2024/01/31 09:00:10;;;;;;;11.23;7.03;;;10.20;99.90;;;;;;4965618;28;21110;-64
2024/01/31 09:02:37;;;;;;;28.07;8.53;;;10.10;99.90;;;;;;4962318;28;20488;-64
2024/01/31 09:05:04;;;;;;;12.30;8.77;;;10.20;99.90;;;;;;4957607;28;20497;-64
2024/01/31 09:07:31;;;;;;;15.67;7.43;;;10.30;99.90;;;;;;4984067;28;20485;-64
2024/01/31 09:09:57;;;;;;;11.77;6.27;;;10.30;99.90;;;;;;4988809;28;20563;-64
2024/01/31 09:12:24;;;;;;;7.70;5.60;;;10.30;99.90;;;;;;4959662;28;20485;-63
2024/01/31 09:14:53;;;;;;;9.83;7.10;;;10.40;99.90;;;;;;4982992;28;20505;-65
2024/01/31 09:17:19;;;;;;;12.40;5.97;;;10.40;99.90;;;;;;4969330;28;20489;-64
2024/01/31 09:19:46;;;;;;;7.50;5.63;;;10.40;99.90;;;;;;4968386;28;20481;-64
2024/01/31 09:22:14;;;;;;;29.10;6.97;;;;;;;;;;4985509;28;20495;-64
2024/01/31 09:24:40;;;;;;;7.60;5.63;;;10.70;99.90;;;;;;4987725;28;20485;-64
2024/01/31 09:27:07;;;;;;;11.93;4.33;;;10.70;99.90;;;;;;4978896;28;20490;-64
2024/01/31 09:29:34;;;;;;;17.23;5.50;;;10.70;99.90;;;;;;4982861;28;20486;-65
2024/01/31 09:32:03;;;;;;;6.00;4.60;;;10.80;99.90;;;;;;4982581;28;20472;-64
2024/01/31 09:34:30;;;;;;;4.23;3.60;;;10.70;99.90;;;;;;4952737;28;20559;-64
2024/01/31 09:36:57;;;;;;;7.47;4.53;;;;;;;;;;4982868;28;20488;-64
2024/01/31 09:39:25;;;;;;;6.30;3.50;;;10.70;99.90;;;;;;4956712;28;20488;-64
2024/01/31 09:41:52;;;;;;;5.60;3.37;;;10.70;99.90;;;;;;4960601;28;20852;-63
2024/01/31 09:44:20;;;;;;;16.40;4.83;;;10.60;99.90;;;;;;4983497;28;20492;-63
2024/01/31 09:46:49;;;;;;;6.77;4.07;;;10.60;99.90;;;;;;4975693;28;20485;-64
2024/01/31 09:49:19;;;;;;;4.70;3.67;;;10.70;99.90;;;;;;4970134;28;20922;-64
2024/01/31 09:51:46;;;;;;;14.53;5.47;;;10.70;99.90;;;;;;4982049;28;21205;-64
2024/01/31 09:54:14;;;;;;;13.57;4.70;;;10.70;99.90;;;;;;4973424;28;20497;-64
2024/01/31 09:56:41;;;;;;;25.17;5.60;;;10.70;99.90;;;;;;4962908;28;20979;-64
2024/01/31 09:59:08;;;;;;;6.17;3.70;;;10.80;99.90;;;;;;4967562;28;20493;-67
2024/01/31 10:01:36;;;;;;;7.30;4.60;;;10.80;99.90;;;;;;4969046;28;20508;-68
2024/01/31 10:04:03;;;;;;;7.30;4.93;;;10.80;99.90;;;;;;4970783;28;20492;-66
2024/01/31 10:06:32;;;;;;;8.00;4.83;;;;;;;;;;4952165;28;20500;-69
2024/01/31 10:08:58;;;;;;;9.37;4.47;;;10.70;99.90;;;;;;4988345;28;20488;-69
2024/01/31 10:11:27;;;;;;;10.90;4.13;;;10.60;99.90;;;;;;4945906;28;20819;-69
2024/01/31 10:13:54;;;;;;;7.80;4.37;;;10.70;99.90;;;;;;4979817;28;20832;-68
2024/01/31 10:16:21;;;;;;;7.73;5.33;;;10.70;99.90;;;;;;4976455;28;21154;-68
2024/01/31 10:18:48;;;;;;;14.83;5.80;;;11.00;99.90;;;;;;4985459;28;20559;-68
2024/01/31 10:21:19;;;;;;;5.60;4.37;;;11.00;99.90;;;;;;4982220;28;20620;-68
2024/01/31 10:23:58;;;;;;;9.10;5.67;;;11.10;99.90;;;;;;4978105;28;21042;-69
2024/01/31 10:26:26;;;;;;;12.10;5.37;;;11.10;99.90;;;;;;4960468;28;20832;-68
2024/01/31 10:28:53;;;;;;;9.37;6.53;;;11.10;99.90;;;;;;4956896;28;20484;-68
2024/01/31 10:31:21;;;;;;;34.97;6.90;;;11.20;99.90;;;;;;4969740;28;20486;-69
2024/01/31 10:33:50;;;;;;;10.50;6.23;;;11.20;99.90;;;;;;4951272;28;21179;-67
2024/01/31 10:36:19;;;;;;;7.10;5.57;;;11.10;99.90;;;;;;4964940;28;20876;-70
2024/01/31 10:38:46;;;;;;;8.93;5.37;;;11.20;99.90;;;;;;4972739;28;20608;-69
2024/01/31 10:41:19;;;;;;;16.20;6.47;;;11.30;99.90;;;;;;4990433;28;20487;-68
2024/01/31 10:43:49;;;;;;;8.93;7.10;;;11.40;99.90;;;;;;4954513;28;20512;-69
2024/01/31 10:46:16;;;;;;;14.03;8.00;;;11.40;99.90;;;;;;4970352;28;20848;-68
2024/01/31 10:48:43;;;;;;;10.03;8.40;;;11.30;99.90;;;;;;4960438;28;20489;-68
2024/01/31 10:51:12;;;;;;;12.77;8.50;;;11.30;99.90;;;;;;4997697;28;20486;-67
2024/01/31 10:53:40;;;;;;;13.93;7.97;;;11.30;99.90;;;;;;4966505;28;20497;-69
2024/01/31 10:56:08;;;;;;;12.13;8.60;;;11.30;99.90;;;;;;4970567;28;20491;-67
2024/01/31 10:58:37;;;;;;;62.43;10.43;;;11.40;99.90;;;;;;4983728;28;20489;-69
2024/01/31 11:01:05;;;;;;;10.00;7.73;;;11.50;99.90;;;;;;4974152;28;20578;-69
2024/01/31 11:03:34;;;;;;;11.90;8.90;;;11.60;99.90;;;;;;4962274;28;20473;-67
2024/01/31 11:06:02;;;;;;;19.83;8.67;;;11.70;99.90;;;;;;4971960;28;20520;-68
2024/01/31 11:08:31;;;;;;;14.57;9.03;;;11.70;99.90;;;;;;4968763;28;21199;-68
2024/01/31 11:10:58;;;;;;;18.07;8.53;;;11.50;99.90;;;;;;4952142;28;20856;-67
2024/01/31 11:13:25;;;;;;;15.20;8.50;;;11.60;99.90;;;;;;4985324;28;20975;-68
2024/01/31 11:15:53;;;;;;;17.57;8.33;;;11.60;99.90;;;;;;4974008;28;20485;-69
2024/01/31 11:18:26;;;;;;;15.40;9.03;;;11.80;99.90;;;;;;4991984;28;20546;-68
2024/01/31 11:20:52;;;;;;;14.47;8.63;;;11.80;99.90;;;;;;4973004;28;21045;-68
2024/01/31 11:23:22;;;;;;;16.17;8.90;;;11.70;99.90;;;;;;4947145;28;20579;-68
2024/01/31 11:25:51;;;;;;;18.90;9.10;;;11.80;99.90;;;;;;4966424;28;20490;-67
2024/01/31 11:28:18;;;;;;;28.83;10.67;;;11.80;99.90;;;;;;4977956;28;20485;-68
2024/01/31 11:30:50;;;;;;;21.93;9.77;;;11.90;99.90;;;;;;4965035;28;20555;-68
2024/01/31 11:33:19;;;;;;;43.27;10.03;;;11.70;99.90;;;;;;4975318;28;20492;-69
2024/01/31 11:35:47;;;;;;;17.97;10.00;;;11.70;99.90;;;;;;4952006;28;20494;-69
2024/01/31 11:38:14;;;;;;;12.83;9.17;;;11.70;99.90;;;;;;4976958;28;20941;-68
2024/01/31 11:40:41;;;;;;;13.87;6.13;;;11.60;99.90;;;;;;4963726;28;20477;-68
2024/01/31 11:43:09;;;;;;;14.03;7.53;;;11.50;99.90;;;;;;4966614;28;20913;-68
2024/01/31 11:45:36;;;;;;;11.63;7.60;;;11.30;99.90;;;;;;4969548;28;20900;-67
2024/01/31 11:48:04;;;;;;;17.33;7.00;;;11.40;99.90;;;;;;4979811;28;20615;-66
2024/01/31 11:50:32;;;;;;;10.03;5.97;;;11.40;99.90;;;;;;4975123;28;20496;-67
2024/01/31 11:52:59;;;;;;;9.27;6.37;;;11.30;99.90;;;;;;4954970;28;20480;-68
2024/01/31 11:55:29;;;;;;;13.97;8.27;;;11.60;99.90;;;;;;4932192;28;20490;-68
2024/01/31 11:57:56;;;;;;;10.20;7.43;;;11.70;99.90;;;;;;4974790;28;20909;-68
2024/01/31 12:00:23;;;;;;;39.07;7.93;;;12.00;99.90;;;;;;4973193;28;20489;-68
2024/01/31 12:02:50;;;;;;;7.97;6.83;;;12.00;99.90;;;;;;4977539;28;21003;-67
2024/01/31 12:05:18;;;;;;;13.77;7.23;;;12.20;99.90;;;;;;4992541;28;20544;-69
2024/01/31 12:07:55;;;;;;;30.27;8.33;;;12.20;99.90;;;;;;4973935;28;20918;-68
2024/01/31 12:10:22;;;;;;;10.90;6.10;;;12.20;99.90;;;;;;4978506;28;21066;-67
2024/01/31 12:12:50;;;;;;;6.17;5.27;;;12.20;99.90;;;;;;4975425;28;21025;-68
2024/01/31 12:15:17;;;;;;;14.73;5.93;;;12.30;99.90;;;;;;4970401;28;20489;-68
2024/01/31 12:17:44;;;;;;;7.33;5.27;;;12.30;99.60;;;;;;4988599;28;20490;-69
2024/01/31 12:20:12;;;;;;;11.20;4.67;;;12.40;99.50;;;;;;4986012;28;20533;-68
2024/01/31 12:22:40;;;;;;;7.50;5.13;;;12.30;99.20;;;;;;4986121;28;20889;-68
2024/01/31 12:25:09;;;;;;;9.40;5.47;;;12.30;99.60;;;;;;4987175;28;20493;-69
2024/01/31 12:27:36;;;;;;;7.27;6.13;;;12.20;99.40;;;;;;4955388;28;20480;-68
2024/01/31 12:30:04;;;;;;;15.53;6.67;;;12.30;99.40;;;;;;4966964;28;20482;-69
2024/01/31 12:32:31;;;;;;;8.83;4.77;;;12.30;99.50;;;;;;4967266;28;20513;-68
2024/01/31 12:34:58;;;;;;;27.43;5.87;;;12.30;98.40;;;;;;4988064;28;20951;-68
2024/01/31 12:37:25;;;;;;;11.70;5.03;;;12.30;97.90;;;;;;4999572;28;20505;-67
2024/01/31 12:39:53;;;;;;;11.23;4.73;;;12.20;97.90;;;;;;4982681;28;20959;-69